sensor_id;sensor_type;location;lat;lon;timestamp;P1;durP1;ratioP1;P2;durP2;ratioP2
36443;SDS011;24692;45.642;13.806;2022-12-07T00:01:15;3.90;;;3.50;;
36443;SDS011;24692;45.642;13.806;2022-12-07T00:03:52;4.57;;;3.63;;
36443;SDS011;24692;45.642;13.806;2022-12-07T00:06:22;4.40;;;3.70;;
36443;SDS011;24692;45.642;13.806;2022-12-07T00:08:48;5.70;;;3.60;;
36443;SDS011;24692;45.642;13.806;2022-12-07T00:11:17;4.00;;;3.30;;
36443;SDS011;24692;45.642;13.806;2022-12-07T00:13:46;4.70;;;3.50;;
36443;SDS011;24692;45.642;13.806;2022-12-07T00:16:14;5.50;;;4.03;;
36443;SDS011;24692;45.642;13.806;2022-12-07T00:18:41;4.83;;;3.53;;
36443;SDS011;24692;45.642;13.806;2022-12-07T00:21:14;4.27;;;3.33;;
36443;SDS011;24692;45.642;13.806;2022-12-07T00:23:42;4.53;;;3.70;;
36443;SDS011;24692;45.642;13.806;2022-12-07T00:26:10;5.73;;;3.30;;
36443;SDS011;24692;45.642;13.806;2022-12-07T00:28:38;4.17;;;3.37;;
36443;SDS011;24692;45.642;13.806;2022-12-07T00:31:05;4.33;;;3.50;;
36443;SDS011;24692;45.642;13.806;2022-12-07T00:33:33;5.90;;;4.07;;
36443;SDS011;24692;45.642;13.806;2022-12-07T00:36:00;6.10;;;3.87;;
36443;SDS011;24692;45.642;13.806;2022-12-07T00:38:30;5.70;;;3.53;;
36443;SDS011;24692;45.642;13.806;2022-12-07T00:40:57;11.13;;;3.77;;
36443;SDS011;24692;45.642;13.806;2022-12-07T00:43:24;5.60;;;3.83;;
36443;SDS011;24692;45.642;13.806;2022-12-07T00:45:50;4.33;;;3.50;;
36443;SDS011;24692;45.642;13.806;2022-12-07T00:48:16;6.27;;;3.87;;
36443;SDS011;24692;45.642;13.806;2022-12-07T00:50:42;3.77;;;3.30;;
36443;SDS011;24692;45.642;13.806;2022-12-07T00:53:07;4.90;;;3.80;;
36443;SDS011;24692;45.642;13.806;2022-12-07T00:55:33;5.10;;;3.97;;
36443;SDS011;24692;45.642;13.806;2022-12-07T00:57:59;5.17;;;4.47;;
36443;SDS011;24692;45.642;13.806;2022-12-07T01:00:25;6.00;;;4.53;;
36443;SDS011;24692;45.642;13.806;2022-12-07T01:02:51;5.40;;;4.27;;
36443;SDS011;24692;45.642;13.806;2022-12-07T01:05:17;7.07;;;4.20;;
36443;SDS011;24692;45.642;13.806;2022-12-07T01:07:43;5.60;;;4.47;;
36443;SDS011;24692;45.642;13.806;2022-12-07T01:10:09;5.50;;;4.40;;
36443;SDS011;24692;45.642;13.806;2022-12-07T01:12:35;6.47;;;4.80;;
36443;SDS011;24692;45.642;13.806;2022-12-07T01:15:00;5.57;;;4.50;;
36443;SDS011;24692;45.642;13.806;2022-12-07T01:17:26;5.83;;;4.53;;
36443;SDS011;24692;45.642;13.806;2022-12-07T01:19:53;5.53;;;4.57;;
36443;SDS011;24692;45.642;13.806;2022-12-07T01:22:19;5.57;;;4.43;;
36443;SDS011;24692;45.642;13.806;2022-12-07T01:24:44;6.07;;;4.43;;
36443;SDS011;24692;45.642;13.806;2022-12-07T01:27:11;6.03;;;4.57;;
36443;SDS011;24692;45.642;13.806;2022-12-07T01:29:37;6.23;;;5.03;;
36443;SDS011;24692;45.642;13.806;2022-12-07T01:32:03;6.30;;;4.50;;
36443;SDS011;24692;45.642;13.806;2022-12-07T01:34:29;8.77;;;4.90;;
36443;SDS011;24692;45.642;13.806;2022-12-07T01:36:55;10.07;;;4.93;;
36443;SDS011;24692;45.642;13.806;2022-12-07T01:39:21;6.23;;;4.57;;
36443;SDS011;24692;45.642;13.806;2022-12-07T01:41:47;5.90;;;4.73;;
36443;SDS011;24692;45.642;13.806;2022-12-07T01:46:45;7.93;;;4.50;;
36443;SDS011;24692;45.642;13.806;2022-12-07T01:49:17;7.13;;;4.50;;
36443;SDS011;24692;45.642;13.806;2022-12-07T01:51:47;7.10;;;5.10;;
36443;SDS011;24692;45.642;13.806;2022-12-07T01:54:16;8.60;;;5.20;;
36443;SDS011;24692;45.642;13.806;2022-12-07T01:56:43;7.40;;;5.10;;
36443;SDS011;24692;45.642;13.806;2022-12-07T01:59:14;9.43;;;5.03;;
36443;SDS011;24692;45.642;13.806;2022-12-07T02:01:41;7.93;;;5.70;;
36443;SDS011;24692;45.642;13.806;2022-12-07T02:04:07;6.57;;;4.57;;
36443;SDS011;24692;45.642;13.806;2022-12-07T02:06:33;6.33;;;4.87;;
36443;SDS011;24692;45.642;13.806;2022-12-07T02:09:00;6.10;;;4.70;;
36443;SDS011;24692;45.642;13.806;2022-12-07T02:11:26;6.47;;;4.60;;
36443;SDS011;24692;45.642;13.806;2022-12-07T02:13:52;6.17;;;4.67;;
36443;SDS011;24692;45.642;13.806;2022-12-07T02:21:55;7.43;;;4.63;;
36443;SDS011;24692;45.642;13.806;2022-12-07T02:30:10;5.87;;;4.40;;
36443;SDS011;24692;45.642;13.806;2022-12-07T02:32:47;7.10;;;4.60;;
36443;SDS011;24692;45.642;13.806;2022-12-07T02:35:28;5.40;;;4.30;;
36443;SDS011;24692;45.642;13.806;2022-12-07T02:43:24;6.10;;;4.23;;
36443;SDS011;24692;45.642;13.806;2022-12-07T02:45:59;6.27;;;4.60;;
36443;SDS011;24692;45.642;13.806;2022-12-07T02:48:29;6.67;;;4.80;;
36443;SDS011;24692;45.642;13.806;2022-12-07T02:50:58;6.83;;;4.63;;
36443;SDS011;24692;45.642;13.806;2022-12-07T02:53:34;6.23;;;4.47;;
36443;SDS011;24692;45.642;13.806;2022-12-07T02:59:02;5.93;;;4.37;;
36443;SDS011;24692;45.642;13.806;2022-12-07T03:12:29;6.23;;;4.20;;
36443;SDS011;24692;45.642;13.806;2022-12-07T03:15:23;6.50;;;4.03;;
36443;SDS011;24692;45.642;13.806;2022-12-07T03:17:53;7.30;;;4.30;;
36443;SDS011;24692;45.642;13.806;2022-12-07T03:20:22;6.53;;;4.47;;
36443;SDS011;24692;45.642;13.806;2022-12-07T03:22:50;5.47;;;4.07;;
36443;SDS011;24692;45.642;13.806;2022-12-07T03:25:17;5.77;;;4.00;;
36443;SDS011;24692;45.642;13.806;2022-12-07T03:28:00;4.53;;;3.97;;
36443;SDS011;24692;45.642;13.806;2022-12-07T03:36:12;5.00;;;4.10;;
36443;SDS011;24692;45.642;13.806;2022-12-07T03:38:52;5.23;;;4.40;;
36443;SDS011;24692;45.642;13.806;2022-12-07T03:41:38;6.10;;;4.60;;
36443;SDS011;24692;45.642;13.806;2022-12-07T03:44:04;7.47;;;4.40;;
36443;SDS011;24692;45.642;13.806;2022-12-07T03:57:07;6.53;;;4.80;;
36443;SDS011;24692;45.642;13.806;2022-12-07T03:59:34;7.33;;;4.80;;
36443;SDS011;24692;45.642;13.806;2022-12-07T04:02:02;6.67;;;4.70;;
36443;SDS011;24692;45.642;13.806;2022-12-07T04:04:29;7.37;;;5.40;;
36443;SDS011;24692;45.642;13.806;2022-12-07T04:06:55;7.03;;;4.97;;
36443;SDS011;24692;45.642;13.806;2022-12-07T04:09:21;7.80;;;5.37;;
36443;SDS011;24692;45.642;13.806;2022-12-07T04:11:46;5.83;;;4.90;;
36443;SDS011;24692;45.642;13.806;2022-12-07T04:14:12;7.17;;;4.70;;
36443;SDS011;24692;45.642;13.806;2022-12-07T04:16:47;5.63;;;4.73;;
36443;SDS011;24692;45.642;13.806;2022-12-07T04:19:15;7.97;;;5.43;;
36443;SDS011;24692;45.642;13.806;2022-12-07T04:21:42;6.03;;;4.50;;
36443;SDS011;24692;45.642;13.806;2022-12-07T04:24:08;5.87;;;4.63;;
36443;SDS011;24692;45.642;13.806;2022-12-07T04:26:33;7.47;;;4.77;;
36443;SDS011;24692;45.642;13.806;2022-12-07T04:28:59;5.80;;;4.10;;
36443;SDS011;24692;45.642;13.806;2022-12-07T04:31:25;6.60;;;4.53;;
36443;SDS011;24692;45.642;13.806;2022-12-07T04:33:50;6.70;;;4.63;;
36443;SDS011;24692;45.642;13.806;2022-12-07T04:36:16;5.97;;;4.20;;
36443;SDS011;24692;45.642;13.806;2022-12-07T04:38:42;7.53;;;4.53;;
36443;SDS011;24692;45.642;13.806;2022-12-07T04:41:08;7.67;;;4.73;;
36443;SDS011;24692;45.642;13.806;2022-12-07T04:43:34;5.60;;;4.30;;
36443;SDS011;24692;45.642;13.806;2022-12-07T04:46:01;6.33;;;4.50;;
36443;SDS011;24692;45.642;13.806;2022-12-07T04:48:28;6.63;;;4.30;;
36443;SDS011;24692;45.642;13.806;2022-12-07T04:50:53;7.30;;;4.80;;
36443;SDS011;24692;45.642;13.806;2022-12-07T04:53:19;6.03;;;4.20;;
36443;SDS011;24692;45.642;13.806;2022-12-07T04:55:45;6.73;;;4.50;;
36443;SDS011;24692;45.642;13.806;2022-12-07T04:58:11;7.70;;;4.50;;
36443;SDS011;24692;45.642;13.806;2022-12-07T05:00:38;5.57;;;4.30;;
36443;SDS011;24692;45.642;13.806;2022-12-07T05:03:04;5.53;;;4.27;;
36443;SDS011;24692;45.642;13.806;2022-12-07T05:05:29;7.10;;;4.30;;
36443;SDS011;24692;45.642;13.806;2022-12-07T05:07:55;5.23;;;4.20;;
36443;SDS011;24692;45.642;13.806;2022-12-07T05:10:21;5.93;;;4.30;;
36443;SDS011;24692;45.642;13.806;2022-12-07T05:12:47;4.73;;;3.93;;
36443;SDS011;24692;45.642;13.806;2022-12-07T05:15:13;5.43;;;4.17;;
36443;SDS011;24692;45.642;13.806;2022-12-07T05:17:39;5.90;;;4.47;;
36443;SDS011;24692;45.642;13.806;2022-12-07T05:20:05;5.47;;;4.00;;
36443;SDS011;24692;45.642;13.806;2022-12-07T05:22:31;6.60;;;4.20;;
36443;SDS011;24692;45.642;13.806;2022-12-07T05:24:57;5.80;;;4.30;;
36443;SDS011;24692;45.642;13.806;2022-12-07T05:27:22;6.27;;;4.07;;
36443;SDS011;24692;45.642;13.806;2022-12-07T05:29:49;6.07;;;4.07;;
36443;SDS011;24692;45.642;13.806;2022-12-07T05:32:15;6.97;;;4.57;;
36443;SDS011;24692;45.642;13.806;2022-12-07T05:34:41;5.70;;;4.50;;
36443;SDS011;24692;45.642;13.806;2022-12-07T05:37:07;7.93;;;4.70;;
36443;SDS011;24692;45.642;13.806;2022-12-07T05:39:32;8.17;;;4.83;;
36443;SDS011;24692;45.642;13.806;2022-12-07T05:41:58;6.30;;;4.70;;
36443;SDS011;24692;45.642;13.806;2022-12-07T05:44:40;5.37;;;4.07;;
36443;SDS011;24692;45.642;13.806;2022-12-07T05:47:07;6.40;;;4.63;;
36443;SDS011;24692;45.642;13.806;2022-12-07T05:49:33;7.40;;;4.50;;
36443;SDS011;24692;45.642;13.806;2022-12-07T05:51:58;6.00;;;4.20;;
36443;SDS011;24692;45.642;13.806;2022-12-07T05:54:24;6.67;;;4.50;;
36443;SDS011;24692;45.642;13.806;2022-12-07T05:56:51;6.47;;;4.73;;
36443;SDS011;24692;45.642;13.806;2022-12-07T05:59:17;6.70;;;4.30;;
36443;SDS011;24692;45.642;13.806;2022-12-07T06:02:02;6.37;;;4.30;;
36443;SDS011;24692;45.642;13.806;2022-12-07T06:04:30;6.70;;;4.60;;
36443;SDS011;24692;45.642;13.806;2022-12-07T06:06:59;5.87;;;4.80;;
36443;SDS011;24692;45.642;13.806;2022-12-07T06:09:25;5.20;;;4.23;;
36443;SDS011;24692;45.642;13.806;2022-12-07T06:11:52;6.10;;;4.60;;
36443;SDS011;24692;45.642;13.806;2022-12-07T06:14:36;6.33;;;4.60;;
36443;SDS011;24692;45.642;13.806;2022-12-07T06:17:02;5.77;;;4.40;;
36443;SDS011;24692;45.642;13.806;2022-12-07T06:19:28;6.07;;;4.47;;
36443;SDS011;24692;45.642;13.806;2022-12-07T06:21:54;5.50;;;4.27;;
36443;SDS011;24692;45.642;13.806;2022-12-07T06:24:21;5.17;;;4.47;;
36443;SDS011;24692;45.642;13.806;2022-12-07T06:26:47;7.60;;;5.20;;
36443;SDS011;24692;45.642;13.806;2022-12-07T06:29:13;8.67;;;5.50;;
36443;SDS011;24692;45.642;13.806;2022-12-07T06:31:39;6.43;;;4.83;;
36443;SDS011;24692;45.642;13.806;2022-12-07T06:34:06;7.90;;;5.20;;
36443;SDS011;24692;45.642;13.806;2022-12-07T06:36:35;8.20;;;4.97;;
36443;SDS011;24692;45.642;13.806;2022-12-07T06:39:02;6.93;;;4.90;;
36443;SDS011;24692;45.642;13.806;2022-12-07T06:41:27;7.50;;;5.73;;
36443;SDS011;24692;45.642;13.806;2022-12-07T06:43:53;7.67;;;5.27;;
36443;SDS011;24692;45.642;13.806;2022-12-07T06:46:19;10.17;;;5.27;;
36443;SDS011;24692;45.642;13.806;2022-12-07T06:48:45;8.37;;;5.70;;
36443;SDS011;24692;45.642;13.806;2022-12-07T06:51:10;8.37;;;5.37;;
36443;SDS011;24692;45.642;13.806;2022-12-07T06:53:36;7.23;;;5.20;;
36443;SDS011;24692;45.642;13.806;2022-12-07T06:56:02;7.50;;;4.87;;
36443;SDS011;24692;45.642;13.806;2022-12-07T06:58:29;8.80;;;4.97;;
36443;SDS011;24692;45.642;13.806;2022-12-07T07:00:55;5.60;;;4.30;;
36443;SDS011;24692;45.642;13.806;2022-12-07T07:03:20;7.03;;;4.60;;
36443;SDS011;24692;45.642;13.806;2022-12-07T07:05:46;5.27;;;4.70;;
36443;SDS011;24692;45.642;13.806;2022-12-07T07:08:12;9.73;;;5.07;;
36443;SDS011;24692;45.642;13.806;2022-12-07T07:10:38;6.30;;;4.87;;
36443;SDS011;24692;45.642;13.806;2022-12-07T07:13:05;6.97;;;4.70;;
36443;SDS011;24692;45.642;13.806;2022-12-07T07:15:31;5.77;;;4.50;;
36443;SDS011;24692;45.642;13.806;2022-12-07T07:17:57;5.37;;;4.47;;
36443;SDS011;24692;45.642;13.806;2022-12-07T07:20:23;5.80;;;4.60;;
36443;SDS011;24692;45.642;13.806;2022-12-07T07:22:49;5.80;;;4.30;;
36443;SDS011;24692;45.642;13.806;2022-12-07T07:25:15;6.50;;;4.07;;
36443;SDS011;24692;45.642;13.806;2022-12-07T07:27:41;6.57;;;4.17;;
36443;SDS011;24692;45.642;13.806;2022-12-07T07:30:07;5.20;;;4.00;;
36443;SDS011;24692;45.642;13.806;2022-12-07T07:32:33;6.53;;;4.23;;
36443;SDS011;24692;45.642;13.806;2022-12-07T07:34:59;5.27;;;4.07;;
36443;SDS011;24692;45.642;13.806;2022-12-07T07:37:25;5.33;;;3.70;;
36443;SDS011;24692;45.642;13.806;2022-12-07T07:39:51;4.10;;;3.67;;
36443;SDS011;24692;45.642;13.806;2022-12-07T07:42:16;4.77;;;4.07;;
36443;SDS011;24692;45.642;13.806;2022-12-07T07:44:42;5.77;;;3.63;;
36443;SDS011;24692;45.642;13.806;2022-12-07T07:47:08;4.90;;;3.80;;
36443;SDS011;24692;45.642;13.806;2022-12-07T07:49:34;5.13;;;3.63;;
36443;SDS011;24692;45.642;13.806;2022-12-07T07:51:59;4.30;;;3.50;;
36443;SDS011;24692;45.642;13.806;2022-12-07T07:54:25;6.10;;;3.47;;
36443;SDS011;24692;45.642;13.806;2022-12-07T07:56:51;4.10;;;3.30;;
36443;SDS011;24692;45.642;13.806;2022-12-07T07:59:17;3.73;;;3.20;;
36443;SDS011;24692;45.642;13.806;2022-12-07T08:01:43;4.40;;;3.30;;
36443;SDS011;24692;45.642;13.806;2022-12-07T08:04:08;3.93;;;3.00;;
36443;SDS011;24692;45.642;13.806;2022-12-07T08:06:34;3.90;;;3.13;;
36443;SDS011;24692;45.642;13.806;2022-12-07T08:09:00;3.87;;;3.10;;
36443;SDS011;24692;45.642;13.806;2022-12-07T08:11:26;6.60;;;3.23;;
36443;SDS011;24692;45.642;13.806;2022-12-07T08:13:52;3.87;;;3.03;;
36443;SDS011;24692;45.642;13.806;2022-12-07T08:16:17;3.93;;;3.03;;
36443;SDS011;24692;45.642;13.806;2022-12-07T08:18:43;4.57;;;3.23;;
36443;SDS011;24692;45.642;13.806;2022-12-07T08:21:12;6.43;;;3.13;;
36443;SDS011;24692;45.642;13.806;2022-12-07T08:23:39;4.23;;;3.13;;
36443;SDS011;24692;45.642;13.806;2022-12-07T08:26:07;4.40;;;2.87;;
36443;SDS011;24692;45.642;13.806;2022-12-07T08:28:34;3.50;;;2.90;;
36443;SDS011;24692;45.642;13.806;2022-12-07T08:31:01;3.97;;;2.77;;
36443;SDS011;24692;45.642;13.806;2022-12-07T08:33:28;5.20;;;2.50;;
36443;SDS011;24692;45.642;13.806;2022-12-07T08:35:54;3.10;;;2.40;;
36443;SDS011;24692;45.642;13.806;2022-12-07T08:38:19;2.33;;;2.13;;
36443;SDS011;24692;45.642;13.806;2022-12-07T08:40:53;2.87;;;2.20;;
36443;SDS011;24692;45.642;13.806;2022-12-07T08:43:19;6.23;;;2.47;;
36443;SDS011;24692;45.642;13.806;2022-12-07T08:45:46;5.33;;;2.70;;
36443;SDS011;24692;45.642;13.806;2022-12-07T08:48:21;7.87;;;2.83;;
36443;SDS011;24692;45.642;13.806;2022-12-07T08:50:49;5.53;;;2.70;;
36443;SDS011;24692;45.642;13.806;2022-12-07T08:53:15;7.53;;;2.93;;
36443;SDS011;24692;45.642;13.806;2022-12-07T08:55:44;7.53;;;2.57;;
36443;SDS011;24692;45.642;13.806;2022-12-07T08:58:10;4.33;;;2.83;;
36443;SDS011;24692;45.642;13.806;2022-12-07T09:00:36;3.00;;;2.70;;
36443;SDS011;24692;45.642;13.806;2022-12-07T09:03:02;4.83;;;2.77;;
36443;SDS011;24692;45.642;13.806;2022-12-07T09:05:28;4.40;;;2.67;;
36443;SDS011;24692;45.642;13.806;2022-12-07T09:07:54;4.20;;;2.63;;
36443;SDS011;24692;45.642;13.806;2022-12-07T09:10:24;7.37;;;3.03;;
36443;SDS011;24692;45.642;13.806;2022-12-07T09:12:51;5.83;;;2.90;;
36443;SDS011;24692;45.642;13.806;2022-12-07T09:15:17;5.87;;;2.70;;
36443;SDS011;24692;45.642;13.806;2022-12-07T09:17:42;6.83;;;2.80;;
36443;SDS011;24692;45.642;13.806;2022-12-07T09:20:08;3.73;;;2.50;;
36443;SDS011;24692;45.642;13.806;2022-12-07T09:22:34;2.67;;;2.30;;
36443;SDS011;24692;45.642;13.806;2022-12-07T09:25:00;3.70;;;2.70;;
36443;SDS011;24692;45.642;13.806;2022-12-07T09:27:27;3.73;;;2.47;;
36443;SDS011;24692;45.642;13.806;2022-12-07T09:29:53;3.67;;;2.17;;
36443;SDS011;24692;45.642;13.806;2022-12-07T09:32:18;4.80;;;2.40;;
36443;SDS011;24692;45.642;13.806;2022-12-07T09:34:44;3.97;;;2.17;;
36443;SDS011;24692;45.642;13.806;2022-12-07T09:37:10;4.13;;;2.40;;
36443;SDS011;24692;45.642;13.806;2022-12-07T09:39:39;5.30;;;2.33;;
36443;SDS011;24692;45.642;13.806;2022-12-07T09:42:05;3.40;;;2.13;;
36443;SDS011;24692;45.642;13.806;2022-12-07T09:44:32;6.70;;;2.33;;
36443;SDS011;24692;45.642;13.806;2022-12-07T09:47:00;3.97;;;2.40;;
36443;SDS011;24692;45.642;13.806;2022-12-07T09:49:27;4.77;;;2.30;;
36443;SDS011;24692;45.642;13.806;2022-12-07T09:52:00;3.90;;;2.50;;
36443;SDS011;24692;45.642;13.806;2022-12-07T09:54:33;6.77;;;2.50;;
36443;SDS011;24692;45.642;13.806;2022-12-07T09:57:05;7.50;;;2.43;;
36443;SDS011;24692;45.642;13.806;2022-12-07T09:59:32;3.53;;;2.30;;
36443;SDS011;24692;45.642;13.806;2022-12-07T10:02:04;5.78;;;2.70;;
36443;SDS011;24692;45.642;13.806;2022-12-07T10:05:04;3.23;;;2.50;;
36443;SDS011;24692;45.642;13.806;2022-12-07T10:07:36;8.57;;;2.70;;
36443;SDS011;24692;45.642;13.806;2022-12-07T10:10:03;3.40;;;2.80;;
36443;SDS011;24692;45.642;13.806;2022-12-07T10:12:52;6.37;;;2.30;;
36443;SDS011;24692;45.642;13.806;2022-12-07T10:15:19;2.90;;;2.13;;
36443;SDS011;24692;45.642;13.806;2022-12-07T10:17:51;3.70;;;2.40;;
36443;SDS011;24692;45.642;13.806;2022-12-07T10:20:18;5.63;;;2.60;;
36443;SDS011;24692;45.642;13.806;2022-12-07T10:23:05;5.70;;;2.70;;
36443;SDS011;24692;45.642;13.806;2022-12-07T10:25:38;4.00;;;2.40;;
36443;SDS011;24692;45.642;13.806;2022-12-07T10:28:13;5.32;;;2.70;;
36443;SDS011;24692;45.642;13.806;2022-12-07T10:30:57;4.27;;;2.77;;
36443;SDS011;24692;45.642;13.806;2022-12-07T10:35:59;3.40;;;2.50;;
36443;SDS011;24692;45.642;13.806;2022-12-07T10:38:26;5.32;;;2.95;;
36443;SDS011;24692;45.642;13.806;2022-12-07T10:41:03;3.30;;;2.97;;
36443;SDS011;24692;45.642;13.806;2022-12-07T10:43:32;4.97;;;3.20;;
36443;SDS011;24692;45.642;13.806;2022-12-07T10:51:43;4.07;;;3.40;;
36443;SDS011;24692;45.642;13.806;2022-12-07T11:02:29;4.03;;;3.30;;
36443;SDS011;24692;45.642;13.806;2022-12-07T11:05:09;4.67;;;3.50;;
36443;SDS011;24692;45.642;13.806;2022-12-07T11:26:09;4.23;;;3.50;;
36443;SDS011;24692;45.642;13.806;2022-12-07T11:37:20;5.67;;;3.63;;
36443;SDS011;24692;45.642;13.806;2022-12-07T11:39:51;7.87;;;4.23;;
36443;SDS011;24692;45.642;13.806;2022-12-07T11:44:56;7.43;;;3.80;;
36443;SDS011;24692;45.642;13.806;2022-12-07T11:47:38;4.77;;;3.60;;
36443;SDS011;24692;45.642;13.806;2022-12-07T11:52:58;4.30;;;3.00;;
36443;SDS011;24692;45.642;13.806;2022-12-07T12:03:45;4.17;;;3.13;;
36443;SDS011;24692;45.642;13.806;2022-12-07T12:06:13;3.90;;;2.70;;
36443;SDS011;24692;45.642;13.806;2022-12-07T12:08:43;4.50;;;2.87;;
36443;SDS011;24692;45.642;13.806;2022-12-07T12:16:39;3.70;;;2.87;;
36443;SDS011;24692;45.642;13.806;2022-12-07T12:21:55;3.07;;;2.77;;
36443;SDS011;24692;45.642;13.806;2022-12-07T12:24:26;4.43;;;2.80;;
36443;SDS011;24692;45.642;13.806;2022-12-07T12:27:04;4.63;;;2.80;;
36443;SDS011;24692;45.642;13.806;2022-12-07T12:29:39;3.07;;;2.77;;
36443;SDS011;24692;45.642;13.806;2022-12-07T12:32:16;2.70;;;2.50;;
36443;SDS011;24692;45.642;13.806;2022-12-07T12:42:46;2.77;;;2.37;;
36443;SDS011;24692;45.642;13.806;2022-12-07T12:45:25;3.77;;;2.60;;
36443;SDS011;24692;45.642;13.806;2022-12-07T12:54:04;2.40;;;2.20;;
36443;SDS011;24692;45.642;13.806;2022-12-07T12:56:50;4.00;;;2.90;;
36443;SDS011;24692;45.642;13.806;2022-12-07T12:59:32;3.13;;;2.83;;
36443;SDS011;24692;45.642;13.806;2022-12-07T13:18:35;3.97;;;2.53;;
36443;SDS011;24692;45.642;13.806;2022-12-07T13:23:35;2.63;;;2.43;;
36443;SDS011;24692;45.642;13.806;2022-12-07T13:33:50;4.13;;;3.03;;
36443;SDS011;24692;45.642;13.806;2022-12-07T13:36:25;3.30;;;3.00;;
36443;SDS011;24692;45.642;13.806;2022-12-07T13:38:57;3.10;;;2.80;;
36443;SDS011;24692;45.642;13.806;2022-12-07T13:41:28;3.13;;;2.70;;
36443;SDS011;24692;45.642;13.806;2022-12-07T13:44:07;4.63;;;2.80;;
36443;SDS011;24692;45.642;13.806;2022-12-07T13:49:27;3.03;;;2.70;;
36443;SDS011;24692;45.642;13.806;2022-12-07T13:51:55;3.10;;;2.80;;
36443;SDS011;24692;45.642;13.806;2022-12-07T13:55:06;4.27;;;2.90;;
36443;SDS011;24692;45.642;13.806;2022-12-07T13:57:40;3.50;;;2.97;;
36443;SDS011;24692;45.642;13.806;2022-12-07T14:00:18;2.60;;;2.40;;
36443;SDS011;24692;45.642;13.806;2022-12-07T14:05:28;4.03;;;3.13;;
36443;SDS011;24692;45.642;13.806;2022-12-07T14:07:55;3.33;;;2.60;;
36443;SDS011;24692;45.642;13.806;2022-12-07T14:10:26;3.20;;;2.73;;
36443;SDS011;24692;45.642;13.806;2022-12-07T14:12:51;4.37;;;2.57;;
36443;SDS011;24692;45.642;13.806;2022-12-07T14:15:25;4.47;;;3.10;;
36443;SDS011;24692;45.642;13.806;2022-12-07T14:17:54;3.30;;;2.90;;
36443;SDS011;24692;45.642;13.806;2022-12-07T14:23:03;3.23;;;2.70;;
36443;SDS011;24692;45.642;13.806;2022-12-07T14:25:46;3.63;;;2.70;;
36443;SDS011;24692;45.642;13.806;2022-12-07T14:28:28;3.50;;;2.57;;
36443;SDS011;24692;45.642;13.806;2022-12-07T14:30:55;3.50;;;2.90;;
36443;SDS011;24692;45.642;13.806;2022-12-07T14:33:21;2.83;;;2.50;;
36443;SDS011;24692;45.642;13.806;2022-12-07T14:35:48;3.00;;;2.70;;
36443;SDS011;24692;45.642;13.806;2022-12-07T14:38:14;3.40;;;2.87;;
36443;SDS011;24692;45.642;13.806;2022-12-07T14:40:40;3.13;;;2.80;;
36443;SDS011;24692;45.642;13.806;2022-12-07T14:43:11;3.40;;;3.10;;
36443;SDS011;24692;45.642;13.806;2022-12-07T14:45:37;4.77;;;3.07;;
36443;SDS011;24692;45.642;13.806;2022-12-07T14:48:04;4.00;;;3.13;;
36443;SDS011;24692;45.642;13.806;2022-12-07T14:50:30;4.97;;;3.30;;
36443;SDS011;24692;45.642;13.806;2022-12-07T14:53:04;4.20;;;2.87;;
36443;SDS011;24692;45.642;13.806;2022-12-07T14:55:39;6.27;;;3.60;;
36443;SDS011;24692;45.642;13.806;2022-12-07T14:58:05;3.30;;;2.90;;
36443;SDS011;24692;45.642;13.806;2022-12-07T15:00:31;4.63;;;3.10;;
36443;SDS011;24692;45.642;13.806;2022-12-07T15:02:58;4.73;;;3.70;;
36443;SDS011;24692;45.642;13.806;2022-12-07T15:05:24;6.63;;;3.40;;
36443;SDS011;24692;45.642;13.806;2022-12-07T15:07:50;5.03;;;3.80;;
36443;SDS011;24692;45.642;13.806;2022-12-07T15:10:21;4.30;;;3.37;;
36443;SDS011;24692;45.642;13.806;2022-12-07T15:12:57;6.13;;;3.53;;
36443;SDS011;24692;45.642;13.806;2022-12-07T15:15:43;5.23;;;3.67;;
36443;SDS011;24692;45.642;13.806;2022-12-07T15:18:09;4.63;;;3.67;;
36443;SDS011;24692;45.642;13.806;2022-12-07T15:20:35;4.57;;;3.60;;
36443;SDS011;24692;45.642;13.806;2022-12-07T15:23:01;4.53;;;3.20;;
36443;SDS011;24692;45.642;13.806;2022-12-07T15:25:27;4.10;;;3.37;;
36443;SDS011;24692;45.642;13.806;2022-12-07T15:27:52;3.80;;;3.40;;
36443;SDS011;24692;45.642;13.806;2022-12-07T15:30:18;5.10;;;3.20;;
36443;SDS011;24692;45.642;13.806;2022-12-07T15:32:48;3.83;;;3.20;;
36443;SDS011;24692;45.642;13.806;2022-12-07T15:35:14;4.27;;;2.93;;
36443;SDS011;24692;45.642;13.806;2022-12-07T15:37:40;4.63;;;3.50;;
36443;SDS011;24692;45.642;13.806;2022-12-07T15:40:06;4.47;;;3.60;;
36443;SDS011;24692;45.642;13.806;2022-12-07T15:42:32;4.37;;;3.30;;
36443;SDS011;24692;45.642;13.806;2022-12-07T15:44:57;5.20;;;3.80;;
36443;SDS011;24692;45.642;13.806;2022-12-07T15:47:30;5.20;;;3.90;;
36443;SDS011;24692;45.642;13.806;2022-12-07T15:50:01;4.07;;;3.30;;
36443;SDS011;24692;45.642;13.806;2022-12-07T15:52:31;4.10;;;3.37;;
36443;SDS011;24692;45.642;13.806;2022-12-07T15:54:57;4.50;;;3.27;;
36443;SDS011;24692;45.642;13.806;2022-12-07T15:57:24;3.73;;;3.30;;
36443;SDS011;24692;45.642;13.806;2022-12-07T15:59:51;3.70;;;3.30;;
36443;SDS011;24692;45.642;13.806;2022-12-07T16:02:17;5.20;;;3.30;;
36443;SDS011;24692;45.642;13.806;2022-12-07T16:04:42;3.97;;;3.17;;
36443;SDS011;24692;45.642;13.806;2022-12-07T16:07:09;4.27;;;3.40;;
36443;SDS011;24692;45.642;13.806;2022-12-07T16:09:36;4.03;;;3.20;;
36443;SDS011;24692;45.642;13.806;2022-12-07T16:12:02;5.27;;;3.23;;
36443;SDS011;24692;45.642;13.806;2022-12-07T16:14:28;4.40;;;3.73;;
36443;SDS011;24692;45.642;13.806;2022-12-07T16:16:57;3.93;;;3.50;;
36443;SDS011;24692;45.642;13.806;2022-12-07T16:19:22;5.13;;;3.60;;
36443;SDS011;24692;45.642;13.806;2022-12-07T16:21:48;6.93;;;3.60;;
36443;SDS011;24692;45.642;13.806;2022-12-07T16:24:14;6.10;;;3.57;;
36443;SDS011;24692;45.642;13.806;2022-12-07T16:26:40;5.00;;;3.83;;
36443;SDS011;24692;45.642;13.806;2022-12-07T16:29:06;4.43;;;3.73;;
36443;SDS011;24692;45.642;13.806;2022-12-07T16:31:31;4.93;;;3.90;;
36443;SDS011;24692;45.642;13.806;2022-12-07T16:33:57;4.33;;;3.53;;
36443;SDS011;24692;45.642;13.806;2022-12-07T16:36:23;4.30;;;3.50;;
36443;SDS011;24692;45.642;13.806;2022-12-07T16:38:50;6.27;;;4.00;;
36443;SDS011;24692;45.642;13.806;2022-12-07T16:41:16;6.30;;;4.07;;
36443;SDS011;24692;45.642;13.806;2022-12-07T16:43:43;6.70;;;3.57;;
36443;SDS011;24692;45.642;13.806;2022-12-07T16:46:09;5.77;;;4.00;;
36443;SDS011;24692;45.642;13.806;2022-12-07T16:48:37;6.53;;;4.00;;
36443;SDS011;24692;45.642;13.806;2022-12-07T16:51:07;5.83;;;3.90;;
36443;SDS011;24692;45.642;13.806;2022-12-07T16:53:34;6.33;;;4.70;;
36443;SDS011;24692;45.642;13.806;2022-12-07T16:56:00;5.30;;;4.03;;
36443;SDS011;24692;45.642;13.806;2022-12-07T16:58:26;6.03;;;3.93;;
36443;SDS011;24692;45.642;13.806;2022-12-07T17:00:52;5.43;;;4.03;;
36443;SDS011;24692;45.642;13.806;2022-12-07T17:03:19;4.93;;;4.00;;
36443;SDS011;24692;45.642;13.806;2022-12-07T17:05:44;5.33;;;4.00;;
36443;SDS011;24692;45.642;13.806;2022-12-07T17:08:12;4.77;;;3.80;;
36443;SDS011;24692;45.642;13.806;2022-12-07T17:10:39;4.90;;;4.00;;
36443;SDS011;24692;45.642;13.806;2022-12-07T17:13:06;6.47;;;4.20;;
36443;SDS011;24692;45.642;13.806;2022-12-07T17:15:59;7.50;;;4.40;;
36443;SDS011;24692;45.642;13.806;2022-12-07T17:18:27;5.67;;;4.50;;
36443;SDS011;24692;45.642;13.806;2022-12-07T17:20:53;5.73;;;4.30;;
36443;SDS011;24692;45.642;13.806;2022-12-07T17:23:19;6.63;;;4.50;;
36443;SDS011;24692;45.642;13.806;2022-12-07T17:25:45;7.90;;;4.30;;